This is the latest recevied weather packets stored in our database for station/object WX4LTG. If no packets are shown the sender has not sent any weather packets the latest 10 day(s).
| Time | Temp. | Humidity | Pressure | Rain* | Wind** | Luminosity | Snow |
|---|---|---|---|---|---|---|---|
| 1777111256 | 20° C | 32% | 1007.7 hPa | 0 mm | - | 0 W/m² | - |
| 1777110952 | 20° C | 33% | 1007.8 hPa | 0 mm | - | 0 W/m² | - |
| 1777110649 | 19.44° C | 33% | 1007.8 hPa | 0 mm | - | 0 W/m² | - |
| 1777110344 | 19.44° C | 34% | 1007.7 hPa | 0 mm | - | 0 W/m² | - |
| 1777110040 | 20° C | 34% | 1007.6 hPa | 0 mm | - | 0 W/m² | - |
| 1777109736 | 20° C | 33% | 1007.5 hPa | 0 mm | - | 0 W/m² | - |
| 1777109432 | 20.56° C | 33% | 1007.6 hPa | 0 mm | - | 0 W/m² | - |
| 1777109128 | 20.56° C | 35% | 1007.6 hPa | 0 mm | - | 0 W/m² | - |
| 1777108828 | 20.56° C | 32% | 1007.5 hPa | 0 mm | - | 0 W/m² | - |
| 1777108526 | 20.56° C | 32% | 1007.5 hPa | 0 mm | - | 0 W/m² | - |
| 1777108220 | 21.11° C | 31% | 1007.5 hPa | 0 mm | - | 0 W/m² | - |
| 1777107916 | 21.67° C | 31% | 1007.3 hPa | 0 mm | - | 0 W/m² | - |
| 1777107612 | 21.67° C | 30% | 1007.3 hPa | 0 mm | - | 0 W/m² | - |
| 1777107307 | 22.22° C | 27% | 1007.5 hPa | 0 mm | - | 0 W/m² | - |
| 1777107003 | 21.11° C | 31% | 1007.3 hPa | 0 mm | - | 0 W/m² | - |
| 1777106699 | 21.11° C | 33% | 1007.5 hPa | 0 mm | - | 0 W/m² | - |
| 1777106395 | 21.67° C | 32% | 1007.5 hPa | 0 mm | - | 0 W/m² | - |
| 1777106091 | 22.22° C | 29% | 1007.2 hPa | 0 mm | - | 0 W/m² | - |
| 1777105790 | 22.78° C | 29% | 1007.4 hPa | 0 mm | - | 0 W/m² | - |
| 1777105490 | 22.78° C | 29% | 1007.5 hPa | 0 mm | - | 0 W/m² | - |
| 1777105186 | 23.33° C | 28% | 1007.5 hPa | 0 mm | - | 0 W/m² | - |
| 1777104883 | 23.33° C | 28% | 1007.4 hPa | 0 mm | - | 0 W/m² | - |
| 1777104579 | 22.78° C | 28% | 1007.4 hPa | 0 mm | - | 0 W/m² | - |
| 1777104275 | 22.78° C | 30% | 1007.4 hPa | 0 mm | - | 0 W/m² | - |
| 1777103971 | 22.78° C | 30% | 1007.3 hPa | 0 mm | - | 0 W/m² | - |
* Rain latest hour (hover to see other rain measurements)
** Current wind speed in m/s (hover to see current wind gust speed)